sensor_id;sensor_type;location;lat;lon;timestamp;P1;durP1;ratioP1;P2;durP2;ratioP2
55879;SDS011;41802;51.564;-1.838;2023-04-08T00:00:42;11.98;;;3.58;;
55879;SDS011;41802;51.564;-1.838;2023-04-08T00:03:10;8.97;;;2.73;;
55879;SDS011;41802;51.564;-1.838;2023-04-08T00:05:38;10.05;;;3.25;;
55879;SDS011;41802;51.564;-1.838;2023-04-08T00:08:06;11.15;;;3.60;;
55879;SDS011;41802;51.564;-1.838;2023-04-08T00:10:33;11.20;;;3.50;;
55879;SDS011;41802;51.564;-1.838;2023-04-08T00:13:03;13.85;;;4.13;;
55879;SDS011;41802;51.564;-1.838;2023-04-08T00:15:31;13.63;;;4.30;;
55879;SDS011;41802;51.564;-1.838;2023-04-08T00:17:58;13.45;;;4.07;;
55879;SDS011;41802;51.564;-1.838;2023-04-08T00:20:26;11.95;;;4.55;;
55879;SDS011;41802;51.564;-1.838;2023-04-08T00:22:54;11.70;;;3.95;;
55879;SDS011;41802;51.564;-1.838;2023-04-08T00:25:21;8.60;;;3.40;;
55879;SDS011;41802;51.564;-1.838;2023-04-08T00:27:51;8.97;;;3.13;;
55879;SDS011;41802;51.564;-1.838;2023-04-08T00:30:20;11.93;;;4.10;;
55879;SDS011;41802;51.564;-1.838;2023-04-08T00:32:48;16.05;;;4.93;;
55879;SDS011;41802;51.564;-1.838;2023-04-08T00:35:16;10.80;;;4.43;;
55879;SDS011;41802;51.564;-1.838;2023-04-08T00:37:44;11.95;;;4.55;;
55879;SDS011;41802;51.564;-1.838;2023-04-08T00:40:13;14.20;;;5.23;;
55879;SDS011;41802;51.564;-1.838;2023-04-08T00:42:41;12.13;;;5.22;;
55879;SDS011;41802;51.564;-1.838;2023-04-08T00:45:09;12.27;;;5.10;;
55879;SDS011;41802;51.564;-1.838;2023-04-08T00:47:38;12.90;;;4.65;;
55879;SDS011;41802;51.564;-1.838;2023-04-08T00:50:08;13.38;;;5.10;;
55879;SDS011;41802;51.564;-1.838;2023-04-08T00:52:36;15.00;;;5.70;;
55879;SDS011;41802;51.564;-1.838;2023-04-08T00:55:04;12.20;;;4.80;;
55879;SDS011;41802;51.564;-1.838;2023-04-08T00:57:32;16.25;;;5.53;;
55879;SDS011;41802;51.564;-1.838;2023-04-08T01:00:00;14.10;;;5.05;;
55879;SDS011;41802;51.564;-1.838;2023-04-08T01:02:32;13.10;;;4.57;;
55879;SDS011;41802;51.564;-1.838;2023-04-08T01:05:04;12.30;;;4.60;;
55879;SDS011;41802;51.564;-1.838;2023-04-08T01:07:33;13.05;;;5.50;;
55879;SDS011;41802;51.564;-1.838;2023-04-08T01:10:02;13.38;;;4.70;;
55879;SDS011;41802;51.564;-1.838;2023-04-08T01:12:30;11.52;;;4.57;;
55879;SDS011;41802;51.564;-1.838;2023-04-08T01:14:59;10.93;;;4.68;;
55879;SDS011;41802;51.564;-1.838;2023-04-08T01:17:28;10.87;;;4.57;;
55879;SDS011;41802;51.564;-1.838;2023-04-08T01:19:57;12.45;;;4.13;;
55879;SDS011;41802;51.564;-1.838;2023-04-08T01:22:28;14.38;;;4.35;;
55879;SDS011;41802;51.564;-1.838;2023-04-08T01:25:01;16.48;;;4.80;;
55879;SDS011;41802;51.564;-1.838;2023-04-08T01:27:33;10.55;;;4.55;;
55879;SDS011;41802;51.564;-1.838;2023-04-08T01:30:01;10.93;;;3.67;;
55879;SDS011;41802;51.564;-1.838;2023-04-08T01:32:29;12.40;;;4.53;;
55879;SDS011;41802;51.564;-1.838;2023-04-08T01:34:58;14.25;;;4.40;;
55879;SDS011;41802;51.564;-1.838;2023-04-08T01:37:27;13.98;;;4.53;;
55879;SDS011;41802;51.564;-1.838;2023-04-08T01:39:55;11.13;;;4.22;;
55879;SDS011;41802;51.564;-1.838;2023-04-08T01:42:23;13.47;;;5.33;;
55879;SDS011;41802;51.564;-1.838;2023-04-08T01:44:54;14.10;;;4.30;;
55879;SDS011;41802;51.564;-1.838;2023-04-08T01:47:22;13.18;;;4.63;;
55879;SDS011;41802;51.564;-1.838;2023-04-08T01:49:51;13.18;;;4.70;;
55879;SDS011;41802;51.564;-1.838;2023-04-08T01:52:19;15.43;;;5.03;;
55879;SDS011;41802;51.564;-1.838;2023-04-08T01:54:48;12.03;;;4.90;;
55879;SDS011;41802;51.564;-1.838;2023-04-08T01:57:16;14.25;;;4.70;;
55879;SDS011;41802;51.564;-1.838;2023-04-08T01:59:46;21.67;;;5.18;;
55879;SDS011;41802;51.564;-1.838;2023-04-08T02:02:16;14.68;;;4.63;;
55879;SDS011;41802;51.564;-1.838;2023-04-08T02:04:44;12.10;;;4.65;;
55879;SDS011;41802;51.564;-1.838;2023-04-08T02:07:12;15.13;;;4.73;;
55879;SDS011;41802;51.564;-1.838;2023-04-08T02:09:41;10.18;;;4.30;;
55879;SDS011;41802;51.564;-1.838;2023-04-08T02:12:08;13.68;;;4.95;;
55879;SDS011;41802;51.564;-1.838;2023-04-08T02:14:36;12.73;;;4.80;;
55879;SDS011;41802;51.564;-1.838;2023-04-08T02:17:04;13.77;;;5.00;;
55879;SDS011;41802;51.564;-1.838;2023-04-08T02:19:39;15.17;;;5.33;;
55879;SDS011;41802;51.564;-1.838;2023-04-08T02:22:09;14.88;;;4.47;;
55879;SDS011;41802;51.564;-1.838;2023-04-08T02:24:38;12.02;;;4.25;;
55879;SDS011;41802;51.564;-1.838;2023-04-08T02:27:07;13.98;;;4.50;;
55879;SDS011;41802;51.564;-1.838;2023-04-08T02:29:36;11.45;;;4.05;;
55879;SDS011;41802;51.564;-1.838;2023-04-08T02:32:06;11.73;;;3.93;;
55879;SDS011;41802;51.564;-1.838;2023-04-08T02:34:35;11.57;;;4.38;;
55879;SDS011;41802;51.564;-1.838;2023-04-08T02:37:05;11.35;;;3.97;;
55879;SDS011;41802;51.564;-1.838;2023-04-08T02:39:33;13.13;;;4.05;;
55879;SDS011;41802;51.564;-1.838;2023-04-08T02:42:01;12.02;;;4.32;;
55879;SDS011;41802;51.564;-1.838;2023-04-08T02:44:30;11.33;;;4.07;;
55879;SDS011;41802;51.564;-1.838;2023-04-08T02:46:58;10.95;;;4.00;;
55879;SDS011;41802;51.564;-1.838;2023-04-08T02:49:25;11.05;;;3.70;;
55879;SDS011;41802;51.564;-1.838;2023-04-08T02:51:53;9.27;;;3.78;;
55879;SDS011;41802;51.564;-1.838;2023-04-08T02:54:22;11.07;;;3.50;;
55879;SDS011;41802;51.564;-1.838;2023-04-08T02:56:50;11.90;;;4.00;;
55879;SDS011;41802;51.564;-1.838;2023-04-08T02:59:17;10.48;;;3.90;;
55879;SDS011;41802;51.564;-1.838;2023-04-08T03:01:45;9.23;;;4.03;;
55879;SDS011;41802;51.564;-1.838;2023-04-08T03:04:13;12.70;;;3.47;;
55879;SDS011;41802;51.564;-1.838;2023-04-08T03:06:41;9.63;;;4.05;;
55879;SDS011;41802;51.564;-1.838;2023-04-08T03:09:09;11.13;;;3.73;;
55879;SDS011;41802;51.564;-1.838;2023-04-08T03:11:38;11.10;;;4.03;;
55879;SDS011;41802;51.564;-1.838;2023-04-08T03:14:06;11.40;;;4.07;;
55879;SDS011;41802;51.564;-1.838;2023-04-08T03:16:34;12.35;;;3.38;;
55879;SDS011;41802;51.564;-1.838;2023-04-08T03:19:01;10.13;;;4.32;;
55879;SDS011;41802;51.564;-1.838;2023-04-08T03:21:29;9.77;;;3.67;;
55879;SDS011;41802;51.564;-1.838;2023-04-08T03:23:57;10.40;;;3.97;;
55879;SDS011;41802;51.564;-1.838;2023-04-08T03:26:25;10.63;;;3.80;;
55879;SDS011;41802;51.564;-1.838;2023-04-08T03:28:54;10.35;;;4.18;;
55879;SDS011;41802;51.564;-1.838;2023-04-08T03:31:22;14.65;;;4.32;;
55879;SDS011;41802;51.564;-1.838;2023-04-08T03:33:50;10.07;;;3.57;;
55879;SDS011;41802;51.564;-1.838;2023-04-08T03:36:17;9.15;;;3.47;;
55879;SDS011;41802;51.564;-1.838;2023-04-08T03:38:45;11.80;;;4.10;;
55879;SDS011;41802;51.564;-1.838;2023-04-08T03:41:13;9.82;;;3.47;;
55879;SDS011;41802;51.564;-1.838;2023-04-08T03:43:40;10.40;;;3.33;;
55879;SDS011;41802;51.564;-1.838;2023-04-08T03:46:09;8.30;;;3.10;;
55879;SDS011;41802;51.564;-1.838;2023-04-08T03:48:37;8.68;;;3.42;;
55879;SDS011;41802;51.564;-1.838;2023-04-08T03:51:05;9.27;;;2.72;;
55879;SDS011;41802;51.564;-1.838;2023-04-08T03:53:33;8.30;;;2.80;;
55879;SDS011;41802;51.564;-1.838;2023-04-08T03:56:00;8.02;;;2.95;;
55879;SDS011;41802;51.564;-1.838;2023-04-08T03:58:30;9.93;;;3.17;;
55879;SDS011;41802;51.564;-1.838;2023-04-08T04:00:58;7.95;;;3.33;;
55879;SDS011;41802;51.564;-1.838;2023-04-08T04:03:27;10.00;;;3.20;;
55879;SDS011;41802;51.564;-1.838;2023-04-08T04:05:56;12.00;;;3.45;;
55879;SDS011;41802;51.564;-1.838;2023-04-08T04:08:24;9.23;;;2.55;;
55879;SDS011;41802;51.564;-1.838;2023-04-08T04:10:52;8.67;;;3.10;;
55879;SDS011;41802;51.564;-1.838;2023-04-08T04:13:19;10.88;;;3.88;;
55879;SDS011;41802;51.564;-1.838;2023-04-08T04:15:47;12.98;;;3.75;;
55879;SDS011;41802;51.564;-1.838;2023-04-08T04:18:15;9.52;;;3.53;;
55879;SDS011;41802;51.564;-1.838;2023-04-08T04:20:44;10.38;;;3.65;;
55879;SDS011;41802;51.564;-1.838;2023-04-08T04:23:12;10.50;;;3.33;;
55879;SDS011;41802;51.564;-1.838;2023-04-08T04:25:40;8.57;;;3.03;;
55879;SDS011;41802;51.564;-1.838;2023-04-08T04:28:07;8.60;;;3.40;;
55879;SDS011;41802;51.564;-1.838;2023-04-08T04:30:35;8.75;;;3.10;;
55879;SDS011;41802;51.564;-1.838;2023-04-08T04:33:03;9.55;;;3.08;;
55879;SDS011;41802;51.564;-1.838;2023-04-08T04:35:31;7.63;;;3.03;;
55879;SDS011;41802;51.564;-1.838;2023-04-08T04:38:00;9.55;;;2.90;;
55879;SDS011;41802;51.564;-1.838;2023-04-08T04:40:28;13.15;;;3.75;;
55879;SDS011;41802;51.564;-1.838;2023-04-08T04:42:55;10.98;;;3.08;;
55879;SDS011;41802;51.564;-1.838;2023-04-08T04:45:23;9.93;;;3.53;;
55879;SDS011;41802;51.564;-1.838;2023-04-08T04:47:50;10.67;;;3.07;;
55879;SDS011;41802;51.564;-1.838;2023-04-08T04:50:18;9.70;;;3.22;;
55879;SDS011;41802;51.564;-1.838;2023-04-08T04:52:46;8.35;;;3.10;;
55879;SDS011;41802;51.564;-1.838;2023-04-08T04:55:15;8.50;;;2.83;;
55879;SDS011;41802;51.564;-1.838;2023-04-08T04:57:42;9.05;;;3.10;;
55879;SDS011;41802;51.564;-1.838;2023-04-08T05:00:10;9.23;;;3.20;;
55879;SDS011;41802;51.564;-1.838;2023-04-08T05:02:38;9.48;;;3.42;;
55879;SDS011;41802;51.564;-1.838;2023-04-08T05:05:08;7.63;;;2.40;;
55879;SDS011;41802;51.564;-1.838;2023-04-08T05:07:36;7.38;;;2.38;;
55879;SDS011;41802;51.564;-1.838;2023-04-08T05:10:04;6.85;;;2.33;;
55879;SDS011;41802;51.564;-1.838;2023-04-08T05:12:33;8.17;;;2.83;;
55879;SDS011;41802;51.564;-1.838;2023-04-08T05:15:02;6.60;;;2.80;;
55879;SDS011;41802;51.564;-1.838;2023-04-08T05:17:30;9.07;;;2.80;;
55879;SDS011;41802;51.564;-1.838;2023-04-08T05:19:57;8.48;;;2.55;;
55879;SDS011;41802;51.564;-1.838;2023-04-08T05:22:25;7.82;;;2.22;;
55879;SDS011;41802;51.564;-1.838;2023-04-08T05:24:53;6.97;;;2.47;;
55879;SDS011;41802;51.564;-1.838;2023-04-08T05:27:20;8.20;;;2.95;;
55879;SDS011;41802;51.564;-1.838;2023-04-08T05:29:49;8.82;;;2.97;;
55879;SDS011;41802;51.564;-1.838;2023-04-08T05:32:17;6.55;;;2.67;;
55879;SDS011;41802;51.564;-1.838;2023-04-08T05:34:44;6.90;;;2.50;;
55879;SDS011;41802;51.564;-1.838;2023-04-08T05:37:12;11.40;;;3.27;;
55879;SDS011;41802;51.564;-1.838;2023-04-08T05:39:39;8.98;;;3.13;;
55879;SDS011;41802;51.564;-1.838;2023-04-08T05:42:08;8.70;;;2.80;;
55879;SDS011;41802;51.564;-1.838;2023-04-08T05:44:36;9.23;;;2.60;;
55879;SDS011;41802;51.564;-1.838;2023-04-08T05:47:05;9.90;;;3.15;;
55879;SDS011;41802;51.564;-1.838;2023-04-08T05:49:33;7.40;;;2.63;;
55879;SDS011;41802;51.564;-1.838;2023-04-08T05:52:01;7.20;;;3.15;;
55879;SDS011;41802;51.564;-1.838;2023-04-08T05:54:29;8.63;;;2.83;;
55879;SDS011;41802;51.564;-1.838;2023-04-08T05:56:58;8.10;;;2.90;;
55879;SDS011;41802;51.564;-1.838;2023-04-08T05:59:25;8.35;;;2.95;;
55879;SDS011;41802;51.564;-1.838;2023-04-08T06:01:53;9.40;;;3.00;;
55879;SDS011;41802;51.564;-1.838;2023-04-08T06:04:23;7.18;;;2.78;;
55879;SDS011;41802;51.564;-1.838;2023-04-08T06:06:51;12.38;;;3.35;;
55879;SDS011;41802;51.564;-1.838;2023-04-08T06:09:19;10.32;;;3.05;;
55879;SDS011;41802;51.564;-1.838;2023-04-08T06:11:46;13.30;;;4.03;;
55879;SDS011;41802;51.564;-1.838;2023-04-08T06:14:16;8.20;;;3.13;;
55879;SDS011;41802;51.564;-1.838;2023-04-08T06:16:43;8.88;;;3.25;;
55879;SDS011;41802;51.564;-1.838;2023-04-08T06:19:11;8.90;;;2.75;;
55879;SDS011;41802;51.564;-1.838;2023-04-08T06:21:40;10.98;;;3.50;;
55879;SDS011;41802;51.564;-1.838;2023-04-08T06:24:07;11.32;;;2.97;;
55879;SDS011;41802;51.564;-1.838;2023-04-08T06:26:36;10.40;;;3.10;;
55879;SDS011;41802;51.564;-1.838;2023-04-08T06:29:03;8.73;;;2.85;;
55879;SDS011;41802;51.564;-1.838;2023-04-08T06:31:31;8.88;;;3.00;;
55879;SDS011;41802;51.564;-1.838;2023-04-08T06:33:58;9.95;;;3.75;;
55879;SDS011;41802;51.564;-1.838;2023-04-08T06:36:26;8.48;;;3.42;;
55879;SDS011;41802;51.564;-1.838;2023-04-08T06:38:56;10.33;;;3.30;;
55879;SDS011;41802;51.564;-1.838;2023-04-08T06:41:24;9.32;;;3.35;;
55879;SDS011;41802;51.564;-1.838;2023-04-08T06:43:52;8.57;;;3.75;;
55879;SDS011;41802;51.564;-1.838;2023-04-08T06:46:19;10.57;;;3.47;;
55879;SDS011;41802;51.564;-1.838;2023-04-08T06:48:47;9.60;;;3.90;;
55879;SDS011;41802;51.564;-1.838;2023-04-08T06:51:16;10.53;;;4.50;;
55879;SDS011;41802;51.564;-1.838;2023-04-08T06:53:43;12.30;;;4.68;;
55879;SDS011;41802;51.564;-1.838;2023-04-08T06:56:12;12.82;;;4.90;;
55879;SDS011;41802;51.564;-1.838;2023-04-08T06:58:40;13.57;;;4.80;;
55879;SDS011;41802;51.564;-1.838;2023-04-08T07:01:07;14.63;;;4.53;;
55879;SDS011;41802;51.564;-1.838;2023-04-08T07:03:35;11.63;;;4.13;;
55879;SDS011;41802;51.564;-1.838;2023-04-08T07:06:03;14.85;;;4.50;;
55879;SDS011;41802;51.564;-1.838;2023-04-08T07:08:31;13.73;;;4.80;;
55879;SDS011;41802;51.564;-1.838;2023-04-08T07:10:58;11.07;;;4.40;;
55879;SDS011;41802;51.564;-1.838;2023-04-08T07:13:27;11.25;;;4.10;;
55879;SDS011;41802;51.564;-1.838;2023-04-08T07:15:56;13.13;;;4.57;;
55879;SDS011;41802;51.564;-1.838;2023-04-08T07:18:23;13.40;;;5.28;;
55879;SDS011;41802;51.564;-1.838;2023-04-08T07:20:52;13.13;;;4.53;;
55879;SDS011;41802;51.564;-1.838;2023-04-08T07:23:20;10.43;;;4.50;;
55879;SDS011;41802;51.564;-1.838;2023-04-08T07:25:48;12.90;;;5.43;;
55879;SDS011;41802;51.564;-1.838;2023-04-08T07:28:16;17.67;;;4.60;;
55879;SDS011;41802;51.564;-1.838;2023-04-08T07:30:45;12.48;;;5.40;;
55879;SDS011;41802;51.564;-1.838;2023-04-08T07:33:12;11.60;;;4.72;;
55879;SDS011;41802;51.564;-1.838;2023-04-08T07:35:42;12.20;;;5.07;;
55879;SDS011;41802;51.564;-1.838;2023-04-08T07:38:10;11.38;;;4.78;;
55879;SDS011;41802;51.564;-1.838;2023-04-08T07:40:38;11.97;;;5.10;;
55879;SDS011;41802;51.564;-1.838;2023-04-08T07:43:06;13.15;;;5.25;;
55879;SDS011;41802;51.564;-1.838;2023-04-08T07:45:35;14.18;;;5.05;;
55879;SDS011;41802;51.564;-1.838;2023-04-08T07:48:05;9.70;;;4.72;;
55879;SDS011;41802;51.564;-1.838;2023-04-08T07:50:34;11.25;;;4.40;;
55879;SDS011;41802;51.564;-1.838;2023-04-08T07:53:22;11.33;;;4.47;;
55879;SDS011;41802;51.564;-1.838;2023-04-08T07:55:51;9.65;;;3.88;;
55879;SDS011;41802;51.564;-1.838;2023-04-08T07:58:19;10.65;;;4.85;;
55879;SDS011;41802;51.564;-1.838;2023-04-08T08:00:47;8.90;;;3.88;;
55879;SDS011;41802;51.564;-1.838;2023-04-08T08:03:20;10.25;;;3.90;;
55879;SDS011;41802;51.564;-1.838;2023-04-08T08:05:48;14.17;;;2.97;;
55879;SDS011;41802;51.564;-1.838;2023-04-08T08:08:16;9.80;;;3.00;;
55879;SDS011;41802;51.564;-1.838;2023-04-08T08:10:43;7.95;;;2.67;;
55879;SDS011;41802;51.564;-1.838;2023-04-08T08:13:11;7.65;;;2.65;;
55879;SDS011;41802;51.564;-1.838;2023-04-08T08:15:42;7.32;;;3.08;;
55879;SDS011;41802;51.564;-1.838;2023-04-08T08:18:10;10.37;;;2.90;;
55879;SDS011;41802;51.564;-1.838;2023-04-08T08:20:39;5.80;;;2.10;;
55879;SDS011;41802;51.564;-1.838;2023-04-08T08:23:06;6.95;;;2.05;;
55879;SDS011;41802;51.564;-1.838;2023-04-08T08:25:34;7.43;;;2.05;;
55879;SDS011;41802;51.564;-1.838;2023-04-08T08:28:02;5.07;;;1.73;;
55879;SDS011;41802;51.564;-1.838;2023-04-08T08:30:30;6.30;;;1.53;;
55879;SDS011;41802;51.564;-1.838;2023-04-08T08:32:59;4.35;;;1.10;;
55879;SDS011;41802;51.564;-1.838;2023-04-08T08:35:27;4.70;;;1.45;;
55879;SDS011;41802;51.564;-1.838;2023-04-08T08:37:56;3.97;;;0.88;;
55879;SDS011;41802;51.564;-1.838;2023-04-08T08:40:23;4.47;;;1.05;;
55879;SDS011;41802;51.564;-1.838;2023-04-08T08:42:51;5.50;;;1.00;;
55879;SDS011;41802;51.564;-1.838;2023-04-08T08:45:19;4.90;;;1.30;;
55879;SDS011;41802;51.564;-1.838;2023-04-08T08:47:46;6.28;;;1.20;;
55879;SDS011;41802;51.564;-1.838;2023-04-08T08:50:16;4.22;;;1.05;;
55879;SDS011;41802;51.564;-1.838;2023-04-08T08:52:47;6.75;;;1.00;;
55879;SDS011;41802;51.564;-1.838;2023-04-08T08:55:18;5.03;;;0.90;;
55879;SDS011;41802;51.564;-1.838;2023-04-08T08:58:06;4.85;;;1.10;;
55879;SDS011;41802;51.564;-1.838;2023-04-08T09:00:35;4.10;;;1.35;;
55879;SDS011;41802;51.564;-1.838;2023-04-08T09:03:15;4.22;;;0.80;;
55879;SDS011;41802;51.564;-1.838;2023-04-08T09:05:47;4.20;;;0.80;;
55879;SDS011;41802;51.564;-1.838;2023-04-08T09:08:24;6.33;;;1.20;;
55879;SDS011;41802;51.564;-1.838;2023-04-08T09:10:54;4.35;;;0.77;;
55879;SDS011;41802;51.564;-1.838;2023-04-08T09:13:22;4.28;;;0.90;;
55879;SDS011;41802;51.564;-1.838;2023-04-08T09:16:02;4.30;;;1.00;;
55879;SDS011;41802;51.564;-1.838;2023-04-08T09:18:31;4.38;;;1.00;;
55879;SDS011;41802;51.564;-1.838;2023-04-08T09:20:59;6.40;;;0.88;;
55879;SDS011;41802;51.564;-1.838;2023-04-08T09:23:37;6.82;;;1.48;;
55879;SDS011;41802;51.564;-1.838;2023-04-08T09:26:10;6.80;;;1.67;;
55879;SDS011;41802;51.564;-1.838;2023-04-08T09:28:39;5.47;;;1.52;;
55879;SDS011;41802;51.564;-1.838;2023-04-08T09:31:17;6.22;;;1.73;;
55879;SDS011;41802;51.564;-1.838;2023-04-08T09:33:45;9.35;;;1.70;;
55879;SDS011;41802;51.564;-1.838;2023-04-08T09:36:14;5.90;;;1.58;;
55879;SDS011;41802;51.564;-1.838;2023-04-08T09:38:42;5.30;;;1.80;;
55879;SDS011;41802;51.564;-1.838;2023-04-08T09:41:12;8.93;;;1.65;;
55879;SDS011;41802;51.564;-1.838;2023-04-08T09:43:41;5.38;;;1.60;;
55879;SDS011;41802;51.564;-1.838;2023-04-08T09:46:10;5.95;;;1.80;;
55879;SDS011;41802;51.564;-1.838;2023-04-08T09:48:39;6.72;;;1.77;;
55879;SDS011;41802;51.564;-1.838;2023-04-08T09:51:07;5.47;;;1.20;;
55879;SDS011;41802;51.564;-1.838;2023-04-08T09:53:41;5.68;;;1.30;;
55879;SDS011;41802;51.564;-1.838;2023-04-08T09:56:14;6.85;;;1.30;;
55879;SDS011;41802;51.564;-1.838;2023-04-08T09:58:45;9.30;;;1.35;;
55879;SDS011;41802;51.564;-1.838;2023-04-08T10:01:15;8.45;;;1.90;;
55879;SDS011;41802;51.564;-1.838;2023-04-08T10:03:47;7.13;;;1.53;;
55879;SDS011;41802;51.564;-1.838;2023-04-08T10:06:15;7.85;;;1.75;;
55879;SDS011;41802;51.564;-1.838;2023-04-08T10:08:43;6.15;;;1.80;;
55879;SDS011;41802;51.564;-1.838;2023-04-08T10:11:11;9.32;;;1.60;;
55879;SDS011;41802;51.564;-1.838;2023-04-08T10:13:42;6.43;;;1.38;;
55879;SDS011;41802;51.564;-1.838;2023-04-08T10:16:17;12.03;;;1.60;;
55879;SDS011;41802;51.564;-1.838;2023-04-08T10:18:45;5.43;;;1.30;;
55879;SDS011;41802;51.564;-1.838;2023-04-08T10:23:58;5.68;;;1.00;;
55879;SDS011;41802;51.564;-1.838;2023-04-08T10:26:32;5.63;;;1.42;;
55879;SDS011;41802;51.564;-1.838;2023-04-08T10:31:49;4.80;;;1.23;;
55879;SDS011;41802;51.564;-1.838;2023-04-08T10:34:17;4.72;;;1.50;;
55879;SDS011;41802;51.564;-1.838;2023-04-08T10:36:46;5.38;;;1.23;;
55879;SDS011;41802;51.564;-1.838;2023-04-08T10:39:14;6.30;;;1.50;;
55879;SDS011;41802;51.564;-1.838;2023-04-08T10:41:43;5.47;;;1.53;;
55879;SDS011;41802;51.564;-1.838;2023-04-08T10:44:14;6.38;;;1.85;;
55879;SDS011;41802;51.564;-1.838;2023-04-08T10:46:43;5.53;;;1.33;;
55879;SDS011;41802;51.564;-1.838;2023-04-08T10:49:12;7.75;;;2.10;;
55879;SDS011;41802;51.564;-1.838;2023-04-08T10:51:41;5.10;;;1.67;;
55879;SDS011;41802;51.564;-1.838;2023-04-08T10:54:10;4.43;;;1.13;;
55879;SDS011;41802;51.564;-1.838;2023-04-08T10:56:47;6.07;;;1.63;;
55879;SDS011;41802;51.564;-1.838;2023-04-08T10:59:17;5.18;;;2.13;;
55879;SDS011;41802;51.564;-1.838;2023-04-08T11:01:45;8.45;;;2.00;;
55879;SDS011;41802;51.564;-1.838;2023-04-08T11:04:15;5.22;;;2.10;;
55879;SDS011;41802;51.564;-1.838;2023-04-08T11:06:45;4.87;;;1.57;;
55879;SDS011;41802;51.564;-1.838;2023-04-08T11:09:13;6.43;;;1.90;;
55879;SDS011;41802;51.564;-1.838;2023-04-08T11:11:43;4.75;;;1.60;;
55879;SDS011;41802;51.564;-1.838;2023-04-08T11:14:11;4.40;;;1.38;;
55879;SDS011;41802;51.564;-1.838;2023-04-08T11:16:39;5.32;;;1.73;;
55879;SDS011;41802;51.564;-1.838;2023-04-08T11:19:07;6.60;;;2.07;;
55879;SDS011;41802;51.564;-1.838;2023-04-08T11:21:36;7.07;;;2.15;;
55879;SDS011;41802;51.564;-1.838;2023-04-08T11:24:10;7.00;;;2.20;;
55879;SDS011;41802;51.564;-1.838;2023-04-08T11:26:39;5.72;;;2.28;;
55879;SDS011;41802;51.564;-1.838;2023-04-08T11:29:08;4.82;;;1.83;;
55879;SDS011;41802;51.564;-1.838;2023-04-08T11:31:39;5.20;;;2.10;;
55879;SDS011;41802;51.564;-1.838;2023-04-08T11:34:26;7.09;;;2.03;;
55879;SDS011;41802;51.564;-1.838;2023-04-08T11:36:56;6.30;;;2.08;;
55879;SDS011;41802;51.564;-1.838;2023-04-08T11:39:24;7.18;;;2.20;;
55879;SDS011;41802;51.564;-1.838;2023-04-08T11:41:52;5.95;;;1.67;;
55879;SDS011;41802;51.564;-1.838;2023-04-08T11:44:28;5.10;;;2.20;;
55879;SDS011;41802;51.564;-1.838;2023-04-08T11:46:56;5.25;;;2.08;;
55879;SDS011;41802;51.564;-1.838;2023-04-08T11:49:24;5.20;;;1.90;;
55879;SDS011;41802;51.564;-1.838;2023-04-08T11:51:56;6.30;;;2.08;;
55879;SDS011;41802;51.564;-1.838;2023-04-08T11:54:26;7.55;;;2.17;;
55879;SDS011;41802;51.564;-1.838;2023-04-08T11:56:54;6.97;;;2.30;;
55879;SDS011;41802;51.564;-1.838;2023-04-08T11:59:23;4.40;;;1.80;;
55879;SDS011;41802;51.564;-1.838;2023-04-08T12:01:54;5.35;;;1.75;;
55879;SDS011;41802;51.564;-1.838;2023-04-08T12:04:22;4.28;;;0.80;;
55879;SDS011;41802;51.564;-1.838;2023-04-08T12:06:50;6.05;;;1.33;;
55879;SDS011;41802;51.564;-1.838;2023-04-08T12:09:19;5.07;;;1.10;;
55879;SDS011;41802;51.564;-1.838;2023-04-08T12:11:46;4.60;;;1.10;;
55879;SDS011;41802;51.564;-1.838;2023-04-08T12:14:14;4.00;;;1.10;;
55879;SDS011;41802;51.564;-1.838;2023-04-08T12:16:42;4.35;;;1.13;;
55879;SDS011;41802;51.564;-1.838;2023-04-08T12:19:09;4.15;;;1.25;;
55879;SDS011;41802;51.564;-1.838;2023-04-08T12:21:37;4.90;;;1.37;;
55879;SDS011;41802;51.564;-1.838;2023-04-08T12:24:05;5.32;;;1.30;;
55879;SDS011;41802;51.564;-1.838;2023-04-08T12:26:34;5.68;;;0.93;;
55879;SDS011;41802;51.564;-1.838;2023-04-08T12:29:01;3.50;;;0.90;;
55879;SDS011;41802;51.564;-1.838;2023-04-08T12:31:29;5.72;;;1.20;;
55879;SDS011;41802;51.564;-1.838;2023-04-08T12:33:57;6.40;;;2.00;;
55879;SDS011;41802;51.564;-1.838;2023-04-08T12:36:24;4.70;;;1.35;;
55879;SDS011;41802;51.564;-1.838;2023-04-08T12:38:52;13.82;;;3.15;;
55879;SDS011;41802;51.564;-1.838;2023-04-08T12:41:20;5.45;;;1.50;;
55879;SDS011;41802;51.564;-1.838;2023-04-08T12:43:49;7.28;;;1.70;;
55879;SDS011;41802;51.564;-1.838;2023-04-08T12:46:17;5.37;;;1.10;;
55879;SDS011;41802;51.564;-1.838;2023-04-08T12:48:45;6.13;;;1.02;;
55879;SDS011;41802;51.564;-1.838;2023-04-08T12:51:28;5.13;;;1.40;;
55879;SDS011;41802;51.564;-1.838;2023-04-08T12:53:56;5.70;;;1.50;;
55879;SDS011;41802;51.564;-1.838;2023-04-08T12:56:24;4.88;;;1.10;;
55879;SDS011;41802;51.564;-1.838;2023-04-08T12:58:53;3.90;;;0.90;;
55879;SDS011;41802;51.564;-1.838;2023-04-08T13:01:23;5.30;;;0.95;;
55879;SDS011;41802;51.564;-1.838;2023-04-08T13:03:50;4.55;;;0.88;;
55879;SDS011;41802;51.564;-1.838;2023-04-08T13:06:18;5.93;;;1.38;;
55879;SDS011;41802;51.564;-1.838;2023-04-08T13:08:46;6.03;;;1.08;;
55879;SDS011;41802;51.564;-1.838;2023-04-08T13:11:14;5.27;;;1.17;;
55879;SDS011;41802;51.564;-1.838;2023-04-08T13:13:42;5.13;;;1.38;;
55879;SDS011;41802;51.564;-1.838;2023-04-08T13:16:13;5.47;;;1.17;;
55879;SDS011;41802;51.564;-1.838;2023-04-08T13:18:41;5.45;;;1.40;;
55879;SDS011;41802;51.564;-1.838;2023-04-08T13:21:08;4.20;;;1.00;;
55879;SDS011;41802;51.564;-1.838;2023-04-08T13:23:37;3.50;;;1.00;;
55879;SDS011;41802;51.564;-1.838;2023-04-08T13:26:05;3.88;;;1.00;;
55879;SDS011;41802;51.564;-1.838;2023-04-08T13:28:33;4.15;;;1.10;;
55879;SDS011;41802;51.564;-1.838;2023-04-08T13:31:20;4.45;;;1.30;;
55879;SDS011;41802;51.564;-1.838;2023-04-08T13:33:48;3.97;;;0.90;;
55879;SDS011;41802;51.564;-1.838;2023-04-08T13:36:15;9.73;;;1.70;;
55879;SDS011;41802;51.564;-1.838;2023-04-08T13:38:43;5.75;;;1.77;;
55879;SDS011;41802;51.564;-1.838;2023-04-08T13:41:11;4.78;;;1.70;;
55879;SDS011;41802;51.564;-1.838;2023-04-08T13:43:39;5.15;;;1.52;;
55879;SDS011;41802;51.564;-1.838;2023-04-08T13:46:07;5.53;;;1.58;;
55879;SDS011;41802;51.564;-1.838;2023-04-08T13:48:36;4.23;;;1.20;;
55879;SDS011;41802;51.564;-1.838;2023-04-08T13:51:04;5.90;;;1.65;;
55879;SDS011;41802;51.564;-1.838;2023-04-08T13:53:33;4.63;;;1.25;;
55879;SDS011;41802;51.564;-1.838;2023-04-08T13:56:01;5.97;;;1.35;;
55879;SDS011;41802;51.564;-1.838;2023-04-08T13:58:28;8.32;;;2.00;;
55879;SDS011;41802;51.564;-1.838;2023-04-08T14:00:56;5.30;;;1.80;;
55879;SDS011;41802;51.564;-1.838;2023-04-08T14:03:24;5.85;;;2.00;;
55879;SDS011;41802;51.564;-1.838;2023-04-08T14:05:54;6.80;;;1.77;;
55879;SDS011;41802;51.564;-1.838;2023-04-08T14:08:24;6.70;;;1.80;;
55879;SDS011;41802;51.564;-1.838;2023-04-08T14:10:54;5.00;;;1.85;;
55879;SDS011;41802;51.564;-1.838;2023-04-08T14:13:22;5.23;;;2.00;;
55879;SDS011;41802;51.564;-1.838;2023-04-08T14:15:50;7.38;;;2.13;;
55879;SDS011;41802;51.564;-1.838;2023-04-08T14:18:20;9.27;;;2.38;;
55879;SDS011;41802;51.564;-1.838;2023-04-08T14:20:47;4.85;;;1.73;;
55879;SDS011;41802;51.564;-1.838;2023-04-08T14:23:17;5.78;;;2.08;;
55879;SDS011;41802;51.564;-1.838;2023-04-08T14:25:44;5.03;;;1.90;;
55879;SDS011;41802;51.564;-1.838;2023-04-08T14:28:12;6.00;;;2.10;;
55879;SDS011;41802;51.564;-1.838;2023-04-08T14:30:40;5.55;;;1.88;;
55879;SDS011;41802;51.564;-1.838;2023-04-08T14:33:09;7.95;;;1.98;;
55879;SDS011;41802;51.564;-1.838;2023-04-08T14:35:37;5.75;;;2.08;;
55879;SDS011;41802;51.564;-1.838;2023-04-08T14:38:05;5.87;;;1.80;;
55879;SDS011;41802;51.564;-1.838;2023-04-08T14:40:35;5.82;;;2.20;;
55879;SDS011;41802;51.564;-1.838;2023-04-08T14:43:03;5.65;;;1.90;;
55879;SDS011;41802;51.564;-1.838;2023-04-08T14:45:31;6.25;;;2.17;;